Time;durP1;ratioP1;P1;durP2;ratioP2;P2;SDS_P1;SDS_P2;PMS_P1;PMS_P2;Temp;Humidity;BMP_temperature;BMP_pressure;BME280_temperature;BME280_humidity;BME280_pressure;Samples;Min_cycle;Max_cycle;Signal;HPM_P1;HPM_P2
2023/05/13 14:34:15;;;;;;;29.90;7.90;;;;;;;25.10;22.98;100754.03;141773;1286;652362;-80
2023/05/13 14:38:39;;;;;;;6.30;1.60;;;;;;;25.06;22.91;100758.43;142218;1288;99655;-78
2023/05/13 14:42:48;;;;;;;2.30;1.40;;;;;;;25.07;22.93;100756.27;144086;1272;107498;-75
2023/05/13 14:46:22;;;;;;;4.00;1.50;;;;;;;25.16;23.51;100760.46;141010;1254;5411928;-79
2023/05/13 14:50:05;;;;;;;10.80;2.80;;;;;;;25.21;23.74;100758.02;145586;1260;94354;-82
2023/05/13 14:54:01;;;;;;;1.60;0.80;;;;;;;25.34;23.59;100765.77;144635;1266;94285;-76
2023/05/13 14:58:02;;;;;;;4.60;1.00;;;;;;;25.41;23.71;100766.25;144593;1266;95225;-79
2023/05/13 15:02:00;;;;;;;15.30;1.30;;;;;;;25.51;23.63;100764.71;144912;1267;94943;-84
2023/05/13 15:05:48;;;;;;;10.10;0.80;;;;;;;25.77;23.51;100763.90;145205;1265;94268;-91
2023/05/13 15:09:27;;;;;;;9.40;1.30;;;;;;;26.00;23.31;100763.11;144578;1262;94882;-84
2023/05/13 15:12:54;;;;;;;26.40;2.50;;;;;;;26.18;23.57;100760.17;144743;1267;95294;-87
2023/05/13 15:16:18;;;;;;;6.90;1.60;;;;;;;26.43;23.34;100758.77;144299;1267;96097;-84
2023/05/13 15:19:43;;;;;;;8.20;1.60;;;;;;;26.50;23.08;100756.03;145004;1256;95240;-85
2023/05/13 15:23:12;;;;;;;5.40;1.60;;;;;;;26.39;22.64;100755.36;145300;1255;95221;-81
2023/05/13 15:26:40;;;;;;;5.70;2.00;;;;;;;26.12;22.50;100755.59;144967;1270;96168;-85
2023/05/13 15:30:11;;;;;;;6.70;2.00;;;;;;;25.94;22.95;100758.70;145192;1256;95297;-83
2023/05/13 15:33:32;;;;;;;4.20;1.40;;;;;;;25.80;23.11;100765.55;145207;1256;95242;-83
2023/05/13 15:36:53;;;;;;;4.30;1.10;;;;;;;25.57;23.10;100767.55;145312;1258;95305;-84
2023/05/13 15:40:23;;;;;;;11.00;1.50;;;;;;;25.26;23.30;100764.79;145192;1258;95220;-82
2023/05/13 15:43:45;;;;;;;5.80;1.00;;;;;;;24.99;24.14;100764.52;145316;1256;95659;-83
2023/05/13 15:47:06;;;;;;;6.10;1.70;;;;;;;24.83;24.44;100767.29;144837;1260;95278;-82
2023/05/13 15:50:27;;;;;;;6.50;1.60;;;;;;;24.63;25.05;100765.92;145455;1251;108300;-87
2023/05/13 15:53:48;;;;;;;6.90;1.40;;;;;;;24.56;25.45;100771.27;145900;1256;95290;-87
2023/05/13 15:57:32;;;;;;;8.60;1.30;;;;;;;24.63;26.52;100766.48;145738;1251;102623;-82
2023/05/13 16:02:27;;;;;;;5.60;1.10;;;;;;;24.66;25.26;100760.51;145782;1254;102033;-81
2023/05/13 16:06:33;;;;;;;3.10;0.80;;;;;;;24.55;25.12;100763.67;145073;1257;95346;-78
2023/05/13 16:10:14;;;;;;;1.50;0.80;;;;;;;24.55;24.80;100764.39;144787;1257;95591;-76
2023/05/13 16:19:35;;;;;;;0.90;0.80;;;;;;;24.38;24.79;100753.63;143702;1278;96247;-84
2023/05/13 16:24:11;;;;;;;0.80;0.80;;;;;;;24.22;24.85;100746.25;143030;1282;101041;-80
2023/05/13 16:33:01;;;;;;;5.10;1.20;;;;;;;24.00;24.82;100743.27;143694;1277;102186;-89
2023/05/13 16:37:07;;;;;;;1.80;1.00;;;;;;;23.83;24.91;100736.27;142556;1276;102668;-77
2023/05/13 16:47:13;;;;;;;;;;;;;;;;;;;;;
2023/05/13 16:52:31;;;;;;;;;;;;;;;;;;;;;
2023/05/13 16:56:45;;;;;;;2.00;1.10;;;;;;;23.21;25.77;100739.48;144493;1267;103512;-88
2023/05/13 17:05:30;;;;;;;6.00;1.30;;;;;;;22.99;25.68;100737.67;143890;1276;103012;-86
2023/05/13 17:09:07;;;;;;;2.40;1.40;;;;;;;22.94;25.81;100741.14;144093;1265;102744;-75
2023/05/13 17:13:18;;;;;;;6.40;1.70;;;;;;;22.96;25.94;100736.31;144163;1270;103440;-78
2023/05/13 17:22:32;;;;;;;;;;;;;;;;;;;;;
2023/05/13 17:26:49;;;;;;;5.40;1.60;;;;;;;22.86;26.52;100754.93;142696;1279;102889;-77
2023/05/13 17:30:59;;;;;;;;;;;;;;;;;;;;;
2023/05/13 17:35:29;;;;;;;6.10;0.80;;;;;;;22.43;26.95;100783.09;143458;1277;103537;-81
2023/05/13 17:39:11;;;;;;;7.90;0.80;;;;;;;22.14;27.07;100775.80;142949;1291;102447;-84
2023/05/13 17:43:18;;;;;;;20.10;1.10;;;;;;;21.87;26.77;100767.40;142388;1280;104377;-79
2023/05/13 17:46:50;;;;;;;19.40;1.80;;;;;;;21.93;27.29;100768.20;143479;1273;102730;-75
2023/05/13 17:50:40;;;;;;;;;;;;;;;;;;;;;
2023/05/13 17:54:04;;;;;;;3.90;1.00;;;;;;;22.22;26.82;100753.20;144033;1272;107347;-79
2023/05/13 17:57:37;;;;;;;4.60;1.00;;;;;;;22.17;26.75;100759.12;144277;1267;107315;-77
2023/05/13 18:01:53;;;;;;;3.30;0.70;;;;;;;22.12;26.71;100767.14;144000;1283;106617;-79
2023/05/13 18:05:13;;;;;;;3.50;0.80;;;;;;;22.10;26.78;100773.02;143800;1271;106834;-76
2023/05/13 18:08:50;;;;;;;1.30;0.90;;;;;;;22.08;26.74;100765.80;144507;1262;95432;-78
2023/05/13 18:12:11;;;;;;;5.80;1.30;;;;;;;22.07;26.79;100764.23;144628;1257;95237;-78
2023/05/13 18:15:50;;;;;;;5.90;0.90;;;;;;;22.02;26.77;100765.73;145275;1256;95265;-75
2023/05/13 18:19:22;;;;;;;2.60;0.90;;;;;;;21.96;26.94;100766.20;144873;1261;95418;-77
2023/05/13 18:22:44;;;;;;;4.30;1.00;;;;;;;21.95;27.15;100767.27;145358;1257;95230;-77
2023/05/13 18:26:26;;;;;;;5.20;0.90;;;;;;;21.99;27.24;100771.09;145382;1257;95282;-79
2023/05/13 18:29:47;;;;;;;1.10;0.80;;;;;;;22.07;27.15;100774.66;145313;1256;96043;-77
2023/05/13 18:33:08;;;;;;;3.20;1.20;;;;;;;22.15;27.06;100778.09;145324;1257;95586;-73
2023/05/13 18:36:29;;;;;;;1.30;1.00;;;;;;;22.26;27.06;100780.02;144725;1257;109199;-72
2023/05/13 18:39:50;;;;;;;2.30;0.90;;;;;;;22.34;27.03;100783.61;144900;1256;95208;-74
2023/05/13 18:43:14;;;;;;;1.80;1.20;;;;;;;22.31;27.08;100782.79;144885;1257;102844;-75
2023/05/13 18:46:38;;;;;;;3.80;0.90;;;;;;;22.38;27.34;100780.17;144964;1256;101323;-74
2023/05/13 18:50:11;;;;;;;4.90;1.40;;;;;;;22.48;27.62;100780.51;144947;1257;102390;-74
2023/05/13 18:53:41;;;;;;;5.70;1.40;;;;;;;22.56;27.96;100776.80;144918;1260;101817;-75
2023/05/13 18:57:09;;;;;;;1.70;1.40;;;;;;;22.56;28.09;100776.09;144644;1265;100517;-74
2023/05/13 19:00:37;;;;;;;4.00;1.60;;;;;;;22.54;28.37;100781.09;144714;1256;103187;-75
2023/05/13 19:04:01;;;;;;;5.20;1.70;;;;;;;22.57;28.72;100780.87;144678;1260;101461;-75
2023/05/13 19:07:28;;;;;;;2.60;1.70;;;;;;;22.60;29.11;100790.36;145002;1259;95775;-74
2023/05/13 19:10:56;;;;;;;4.20;2.10;;;;;;;22.63;29.42;100786.95;144790;1260;108045;-74
2023/05/13 19:14:46;;;;;;;6.10;1.90;;;;;;;22.67;30.15;100790.77;144711;1256;107903;-74
2023/05/13 19:18:10;;;;;;;2.90;1.70;;;;;;;22.69;30.92;100790.73;144724;1260;96130;-72
